createdAt,value
2019-02-23T06:45:38.788Z,5.65
2019-02-23T06:46:38.774Z,5.71
2019-02-23T06:47:38.742Z,5.76
2019-02-23T06:48:38.734Z,5.78
2019-02-23T06:49:38.721Z,5.67
2019-02-23T06:50:38.730Z,5.67
2019-02-23T06:51:38.721Z,5.74
2019-02-23T06:52:38.689Z,5.63
2019-02-23T06:53:38.702Z,5.71
2019-02-23T06:54:38.686Z,5.58
2019-02-23T06:55:38.658Z,5.60
2019-02-23T06:56:38.669Z,5.68
2019-02-23T06:57:38.641Z,5.58
2019-02-23T06:58:38.651Z,5.56
2019-02-23T06:59:38.620Z,5.49
2019-02-23T07:00:38.605Z,5.51
2019-02-23T07:01:38.620Z,5.48
2019-02-23T07:02:38.609Z,5.48
2019-02-23T07:03:38.574Z,5.39
2019-02-23T07:04:38.565Z,5.39
2019-02-23T07:05:38.561Z,5.38
2019-02-23T07:06:38.575Z,5.49
2019-02-23T07:07:38.548Z,5.42
2019-02-23T07:08:46.550Z,5.43
2019-02-23T07:09:38.514Z,5.43
2019-02-23T07:10:38.497Z,5.45
2019-02-23T07:11:38.510Z,5.53
2019-02-23T07:12:38.498Z,5.57
2019-02-23T07:13:38.467Z,5.53
2019-02-23T07:14:38.464Z,5.51
2019-02-23T07:15:38.445Z,5.43
2019-02-23T07:16:38.443Z,5.54
2019-02-23T07:17:38.455Z,5.54
2019-02-23T07:18:38.413Z,5.60
2019-02-23T07:19:38.411Z,5.58
2019-02-23T07:20:44.294Z,5.64
2019-02-23T07:21:39.384Z,5.56
2019-02-23T07:22:38.395Z,5.61
2019-02-23T07:23:38.360Z,5.65
2019-02-23T07:24:38.349Z,5.64
2019-02-23T07:25:38.342Z,5.68
2019-02-23T07:26:38.337Z,5.72
2019-02-23T07:27:38.432Z,5.68
2019-02-23T07:28:38.314Z,5.61
2019-02-23T07:29:38.297Z,5.64
2019-02-23T07:30:38.288Z,5.65
2019-02-23T07:31:38.276Z,5.64
2019-02-23T07:32:38.286Z,5.64
2019-02-23T07:33:38.262Z,5.72
2019-02-23T07:34:38.256Z,5.68
2019-02-23T07:35:38.318Z,5.67
2019-02-23T07:36:38.224Z,5.75
2019-02-23T07:37:38.255Z,5.74
2019-02-23T07:38:38.212Z,5.82
2019-02-23T07:39:38.202Z,5.81
2019-02-23T07:40:38.182Z,5.89
2019-02-23T07:41:38.179Z,5.93
2019-02-23T07:42:38.191Z,5.86
2019-02-23T07:43:38.152Z,5.85
2019-02-23T07:44:38.145Z,5.85
2019-02-23T07:45:38.141Z,5.91
2019-02-23T07:46:38.120Z,5.94
2019-02-23T07:47:38.132Z,5.94
2019-02-23T07:48:38.099Z,5.99
2019-02-23T07:49:38.110Z,5.94
2019-02-23T07:50:38.079Z,5.93
2019-02-23T07:51:38.070Z,5.96
2019-02-23T07:52:38.078Z,6.08
2019-02-23T07:53:38.048Z,6.12
2019-02-23T07:54:38.043Z,6.19
2019-02-23T07:55:38.025Z,6.19
2019-02-23T07:56:38.017Z,6.21
2019-02-23T07:57:38.045Z,6.19
2019-02-23T07:58:37.994Z,6.18
2019-02-23T07:59:37.984Z,6.21
2019-02-23T08:00:37.985Z,6.30
2019-02-23T08:01:37.963Z,6.28
2019-02-23T08:02:37.977Z,6.37
2019-02-23T08:03:37.948Z,6.27
2019-02-23T08:04:37.931Z,6.37
2019-02-23T08:05:37.923Z,6.37
2019-02-23T08:06:37.913Z,6.40
2019-02-23T08:07:39.788Z,6.46
2019-02-23T08:08:37.890Z,6.48
2019-02-23T08:09:37.885Z,6.46
2019-02-23T08:10:37.871Z,6.64
2019-02-23T08:11:37.860Z,6.59
2019-02-23T08:12:37.877Z,6.62
2019-02-23T08:13:37.847Z,6.66
2019-02-23T08:14:37.832Z,6.69
2019-02-23T08:15:37.835Z,6.73
2019-02-23T08:16:37.807Z,6.71
2019-02-23T08:17:37.819Z,6.76
2019-02-23T08:18:37.788Z,6.94
2019-02-23T08:19:37.784Z,6.81
2019-02-23T08:20:37.770Z,6.74
2019-02-23T08:21:37.760Z,6.91
2019-02-23T08:22:37.804Z,6.76
2019-02-23T08:23:37.740Z,6.92
2019-02-23T08:24:37.771Z,6.91
2019-02-23T08:25:37.718Z,7.05
2019-02-23T08:26:37.707Z,6.91
2019-02-23T08:27:37.724Z,6.94
2019-02-23T08:28:37.685Z,7.09
2019-02-23T08:29:37.675Z,7.21
2019-02-23T08:30:37.701Z,7.25
2019-02-23T08:31:37.655Z,7.23
2019-02-23T08:32:37.673Z,7.21
2019-02-23T08:33:37.698Z,7.31
2019-02-23T08:34:37.623Z,7.30
2019-02-23T08:35:37.619Z,7.35
2019-02-23T08:36:37.604Z,7.39
2019-02-23T08:37:37.650Z,7.46
2019-02-23T08:38:37.581Z,7.64
2019-02-23T08:39:37.584Z,7.71
2019-02-23T08:40:37.562Z,7.87
2019-02-23T08:41:37.547Z,7.92
2019-02-23T08:42:37.587Z,7.98
2019-02-23T08:43:37.531Z,8.05
2019-02-23T08:44:37.524Z,8.23
2019-02-23T08:45:37.517Z,8.20
2019-02-23T08:46:37.523Z,8.30
2019-02-23T08:47:37.537Z,8.34
2019-02-23T08:48:37.476Z,8.36
2019-02-23T08:49:37.467Z,8.37
2019-02-23T08:50:37.452Z,8.29
2019-02-23T08:51:37.441Z,8.34
2019-02-23T08:52:48.191Z,8.50
2019-02-23T08:53:38.425Z,8.58
2019-02-23T08:54:37.413Z,8.74
2019-02-23T08:55:37.416Z,8.70
2019-02-23T08:56:37.392Z,8.87
2019-02-23T08:57:37.441Z,8.99
2019-02-23T08:58:37.365Z,9.14
2019-02-23T08:59:37.355Z,9.15
2019-02-23T09:00:37.347Z,9.21
2019-02-23T09:01:37.386Z,9.28
2019-02-23T09:02:37.348Z,9.32
2019-02-23T09:03:37.315Z,9.26
2019-02-23T09:04:37.300Z,9.18
2019-02-23T09:05:37.289Z,9.29
2019-02-23T09:06:37.282Z,9.20
2019-02-23T09:07:37.291Z,9.35
2019-02-23T09:08:37.264Z,9.24
2019-02-23T09:09:37.246Z,9.35
2019-02-23T09:10:37.284Z,9.48
2019-02-23T09:11:37.224Z,9.61
2019-02-23T09:12:37.256Z,9.75
2019-02-23T09:13:37.211Z,9.69
2019-02-23T09:14:37.261Z,9.56
2019-02-23T09:15:37.179Z,9.66
2019-02-23T09:16:37.167Z,9.71
2019-02-23T09:17:37.160Z,9.51
2019-02-23T09:18:37.200Z,9.69
2019-02-23T09:19:37.185Z,9.96
2019-02-23T09:20:37.177Z,9.81
2019-02-23T09:21:37.115Z,10.08
2019-02-23T09:22:37.105Z,10.23
2019-02-23T09:23:37.113Z,10.36
2019-02-23T09:24:37.078Z,10.78
2019-02-23T09:25:37.065Z,11.00
2019-02-23T09:26:37.057Z,11.17
2019-02-23T09:27:37.056Z,11.33
2019-02-23T09:28:37.085Z,11.51
2019-02-23T09:29:37.021Z,11.54
2019-02-23T09:30:37.011Z,11.51
2019-02-23T09:31:37.007Z,11.72
2019-02-23T09:32:36.987Z,12.05
2019-02-23T09:33:36.998Z,12.27
2019-02-23T09:34:36.964Z,12.50
2019-02-23T09:35:36.957Z,12.62
2019-02-23T09:36:36.960Z,12.45
2019-02-23T09:37:36.933Z,12.56
2019-02-23T09:38:36.965Z,12.60
2019-02-23T09:39:36.914Z,12.77
2019-02-23T09:40:36.899Z,12.74
2019-02-23T09:41:36.912Z,12.74
2019-02-23T09:42:36.919Z,12.82
2019-02-23T09:43:36.894Z,12.54
2019-02-23T09:44:36.857Z,12.79
2019-02-23T09:45:36.845Z,13.04
2019-02-23T09:46:36.839Z,13.11
2019-02-23T09:47:36.889Z,13.49
2019-02-23T09:48:36.836Z,13.60
2019-02-23T09:49:36.855Z,13.70
2019-02-23T09:50:36.791Z,13.81
2019-02-23T09:51:36.781Z,13.95
2019-02-23T09:52:36.771Z,14.37
2019-02-23T09:53:36.798Z,14.29
2019-02-23T09:54:36.790Z,14.27
2019-02-23T09:55:36.776Z,14.18
2019-02-23T09:56:36.731Z,14.40
2019-02-23T09:57:36.785Z,14.64
2019-02-23T09:58:36.729Z,14.99
2019-02-23T09:59:36.702Z,15.47
2019-02-23T10:00:36.696Z,15.78
2019-02-23T10:01:36.705Z,15.93
2019-02-23T10:02:36.661Z,15.76
2019-02-23T10:03:36.679Z,15.71
2019-02-23T10:04:36.638Z,16.05
2019-02-23T10:05:38.216Z,15.80
2019-02-23T10:06:36.658Z,15.35
2019-02-23T10:07:36.623Z,14.86
2019-02-23T10:08:36.624Z,15.29
2019-02-23T10:09:36.634Z,15.49
2019-02-23T10:10:36.573Z,15.75
2019-02-23T10:11:36.570Z,15.96
2019-02-23T10:12:36.553Z,15.93
2019-02-23T10:13:36.570Z,15.62
2019-02-23T10:14:36.545Z,15.68
2019-02-23T10:15:36.521Z,16.05
2019-02-23T10:16:36.510Z,16.30
2019-02-23T10:17:36.534Z,16.34
2019-02-23T10:18:36.633Z,16.21
2019-02-23T10:19:36.476Z,16.61
2019-02-23T10:20:36.475Z,16.34
2019-02-23T10:21:36.456Z,16.14
2019-02-23T10:22:36.472Z,16.02
2019-02-23T10:23:36.439Z,16.05
2019-02-23T10:24:36.453Z,16.04
2019-02-23T10:25:36.412Z,16.46
2019-02-23T10:26:36.399Z,16.61
2019-02-23T10:27:36.393Z,16.49
2019-02-23T10:28:36.378Z,16.01
2019-02-23T10:29:36.390Z,15.72
2019-02-23T10:30:36.425Z,15.56
2019-02-23T10:31:36.418Z,16.04
2019-02-23T10:32:36.349Z,15.74
2019-02-23T10:33:41.383Z,16.39
2019-02-23T10:34:37.340Z,16.50
2019-02-23T10:35:36.359Z,16.15
2019-02-23T10:36:36.302Z,16.31
2019-02-23T10:37:36.283Z,16.31
2019-02-23T10:38:36.274Z,16.27
2019-02-23T10:39:36.303Z,15.76
2019-02-23T10:40:36.282Z,15.89
2019-02-23T10:41:36.240Z,16.01
2019-02-23T10:42:36.231Z,15.87
2019-02-23T10:43:36.218Z,15.84
2019-02-23T10:44:36.258Z,16.08
2019-02-23T10:45:36.200Z,16.58
2019-02-23T10:46:36.201Z,16.60
2019-02-23T10:47:36.176Z,16.70
2019-02-23T10:48:36.177Z,16.43
2019-02-23T10:49:36.185Z,16.27
2019-02-23T10:50:36.143Z,16.45
2019-02-23T10:51:36.133Z,16.41
2019-02-23T10:52:36.179Z,16.46
2019-02-23T10:53:36.112Z,16.27
2019-02-23T10:54:36.139Z,16.68
2019-02-23T10:55:36.089Z,16.86
2019-02-23T10:56:36.082Z,16.91
2019-02-23T10:57:36.068Z,16.86
2019-02-23T10:58:36.058Z,16.75
2019-02-23T10:59:36.067Z,16.88
2019-02-23T11:00:36.050Z,16.85
2019-02-23T11:01:36.024Z,17.22
2019-02-23T11:02:36.018Z,17.43
2019-02-23T11:03:36.055Z,17.68
2019-02-23T11:04:36.014Z,17.26
2019-02-23T11:05:36.002Z,17.22
2019-02-23T11:06:38.498Z,16.85
2019-02-23T11:07:35.958Z,17.04
2019-02-23T11:08:35.961Z,17.15
2019-02-23T11:09:35.934Z,17.15
2019-02-23T11:10:35.943Z,17.14
2019-02-23T11:11:35.961Z,17.56
2019-02-23T11:12:35.902Z,17.82
2019-02-23T11:13:35.897Z,18.07
2019-02-23T11:14:35.890Z,18.72
2019-02-23T11:15:35.890Z,18.54
2019-02-23T11:16:35.860Z,18.67
2019-02-23T11:17:35.857Z,18.44
2019-02-23T11:18:35.837Z,18.45
2019-02-23T11:19:35.825Z,18.45
2019-02-23T11:20:35.875Z,18.98
2019-02-23T11:21:35.804Z,19.62
2019-02-23T11:22:35.800Z,19.78
2019-02-23T11:23:43.810Z,20.05
2019-02-23T11:24:36.769Z,19.71
2019-02-23T11:25:35.779Z,19.55
2019-02-23T11:26:35.756Z,19.88
2019-02-23T11:27:35.737Z,19.68
2019-02-23T11:28:35.729Z,19.87
2019-02-23T11:29:35.723Z,19.76
2019-02-23T11:30:35.755Z,19.56
2019-02-23T11:31:35.751Z,19.55
2019-02-23T11:32:35.694Z,19.36
2019-02-23T11:33:35.673Z,18.87
2019-02-23T11:34:35.702Z,18.75
2019-02-23T11:35:35.676Z,18.78
2019-02-23T11:36:35.673Z,18.60
2019-02-23T11:37:35.667Z,18.85
2019-02-23T11:38:35.646Z,18.42
2019-02-23T11:39:35.655Z,18.26
2019-02-23T11:40:35.636Z,18.70
2019-02-23T11:41:35.664Z,18.25
2019-02-23T11:42:35.578Z,18.12
2019-02-23T11:43:35.578Z,17.56
2019-02-23T11:44:35.564Z,17.51
2019-02-23T11:45:35.953Z,17.62
2019-02-23T11:46:35.542Z,17.11
2019-02-23T11:47:35.527Z,17.03
2019-02-23T11:48:35.512Z,16.68
2019-02-23T11:49:35.542Z,16.11
2019-02-23T11:50:35.524Z,15.38
2019-02-23T11:51:35.483Z,14.94
2019-02-23T11:52:35.479Z,14.88
2019-02-23T11:53:35.470Z,14.61
2019-02-23T11:54:35.456Z,14.65
2019-02-23T11:55:35.457Z,14.62
2019-02-23T11:56:35.457Z,15.16
2019-02-23T11:57:35.417Z,15.32
2019-02-23T11:58:35.409Z,15.83
2019-02-23T11:59:35.917Z,16.25
2019-02-23T12:00:35.412Z,16.43
2019-02-23T12:01:35.381Z,16.67
2019-02-23T12:02:35.362Z,16.91
2019-02-23T12:03:35.351Z,17.12
2019-02-23T12:04:35.368Z,17.25
2019-02-23T12:05:35.350Z,17.31
2019-02-23T12:06:35.319Z,17.12
2019-02-23T12:07:35.319Z,17.34
2019-02-23T12:08:35.296Z,17.06
2019-02-23T12:09:35.289Z,16.96
2019-02-23T12:10:35.302Z,17.38
2019-02-23T12:11:35.271Z,17.96
2019-02-23T12:12:35.255Z,17.97
2019-02-23T12:13:35.247Z,18.17
2019-02-23T12:14:35.255Z,18.18
2019-02-23T12:15:35.250Z,18.02
2019-02-23T12:16:35.212Z,18.10
2019-02-23T12:17:35.210Z,17.95
2019-02-23T12:18:35.193Z,18.23
2019-02-23T12:19:35.178Z,17.99
2019-02-23T12:20:35.203Z,18.05
2019-02-23T12:21:35.279Z,18.26
2019-02-23T12:22:35.150Z,18.08
2019-02-23T12:23:35.149Z,17.95
2019-02-23T12:24:35.127Z,17.62
2019-02-23T12:25:35.159Z,17.41
2019-02-23T12:26:35.103Z,17.34
2019-02-23T12:27:35.097Z,17.18
2019-02-23T12:28:35.099Z,17.38
2019-02-23T12:29:35.090Z,17.86
2019-02-23T12:30:35.185Z,17.71
2019-02-23T12:31:35.097Z,17.19
2019-02-23T12:32:35.052Z,17.14
2019-02-23T12:33:35.031Z,17.11
2019-02-23T12:34:35.041Z,17.44
2019-02-23T12:35:35.030Z,17.36
2019-02-23T12:36:35.002Z,17.26
2019-02-23T12:37:35.005Z,17.51
2019-02-23T12:38:34.975Z,17.66
2019-02-23T12:39:35.979Z,17.44
2019-02-23T12:40:34.975Z,17.16
2019-02-23T12:41:34.985Z,17.30
2019-02-23T12:42:34.932Z,16.81
2019-02-23T12:43:34.948Z,16.35
2019-02-23T12:44:34.911Z,15.56
2019-02-23T12:45:34.955Z,14.60
2019-02-23T12:46:34.890Z,14.06
2019-02-23T12:47:34.899Z,13.89
2019-02-23T12:48:34.868Z,13.82
2019-02-23T12:49:34.856Z,13.81
2019-02-23T12:50:34.851Z,13.71
2019-02-23T12:51:34.860Z,13.78
2019-02-23T12:52:34.843Z,13.82
2019-02-23T12:53:34.820Z,13.77
2019-02-23T12:54:34.801Z,13.82
2019-02-23T12:55:34.806Z,13.67
2019-02-23T12:56:34.803Z,13.54
2019-02-23T12:57:34.773Z,13.33
2019-02-23T12:58:34.772Z,13.23
2019-02-23T12:59:34.757Z,13.12
2019-02-23T13:00:34.735Z,13.11
2019-02-23T13:01:34.824Z,12.96
2019-02-23T13:02:34.724Z,12.82
2019-02-23T13:03:34.713Z,12.83
2019-02-23T13:04:34.705Z,12.70
2019-02-23T13:05:34.705Z,12.70
2019-02-23T13:06:34.695Z,12.83
2019-02-23T13:07:34.660Z,12.87
2019-02-23T13:08:34.651Z,12.75
2019-02-23T13:09:34.639Z,12.70
2019-02-23T13:10:34.646Z,12.71
2019-02-23T13:11:34.655Z,12.64
2019-02-23T13:12:34.607Z,12.57
2019-02-23T13:13:34.599Z,12.65
2019-02-23T13:14:34.584Z,12.65
2019-02-23T13:15:34.578Z,12.85
2019-02-23T13:16:34.597Z,12.93
2019-02-23T13:17:34.575Z,12.79
2019-02-23T13:18:34.541Z,12.72
2019-02-23T13:19:34.531Z,12.74
2019-02-23T13:20:34.518Z,12.70
2019-02-23T13:21:34.529Z,12.72
2019-02-23T13:22:34.510Z,12.71
2019-02-23T13:23:34.503Z,12.54
2019-02-23T13:24:34.477Z,12.65
2019-02-23T13:25:34.463Z,12.60
2019-02-23T13:26:34.488Z,12.60
2019-02-23T13:27:34.448Z,12.54
2019-02-23T13:28:34.431Z,12.57
2019-02-23T13:29:34.421Z,12.56
2019-02-23T13:30:34.410Z,12.52
2019-02-23T13:31:34.417Z,12.46
2019-02-23T13:32:34.388Z,12.45
2019-02-23T13:33:34.395Z,12.46
2019-02-23T13:34:34.386Z,12.41
2019-02-23T13:35:34.356Z,12.38
2019-02-23T13:36:34.369Z,12.31
2019-02-23T13:37:34.349Z,12.34
2019-02-23T13:38:34.323Z,12.32
2019-02-23T13:39:34.317Z,12.29
2019-02-23T13:40:34.323Z,12.47
2019-02-23T13:41:34.309Z,12.57
2019-02-23T13:42:34.282Z,12.39
2019-02-23T13:43:34.276Z,12.35
2019-02-23T13:44:34.270Z,12.24
2019-02-23T13:45:34.247Z,12.23
2019-02-23T13:46:34.256Z,12.20
2019-02-23T13:47:34.225Z,12.23
2019-02-23T13:48:34.215Z,12.34
2019-02-23T13:49:34.203Z,12.35
2019-02-23T13:50:34.192Z,12.35
2019-02-23T13:51:34.205Z,12.27
2019-02-23T13:52:34.186Z,12.17
2019-02-23T13:53:34.161Z,12.21
2019-02-23T13:54:38.996Z,12.24
2019-02-23T13:55:35.163Z,12.05
2019-02-23T13:56:34.149Z,11.86
2019-02-23T13:57:34.118Z,11.82
2019-02-23T13:58:34.110Z,11.85
2019-02-23T13:59:34.095Z,11.79
2019-02-23T14:00:34.080Z,11.88
2019-02-23T14:01:34.103Z,11.91
2019-02-23T14:02:34.311Z,11.90
2019-02-23T14:03:36.516Z,11.80
2019-02-23T14:04:34.046Z,11.79
2019-02-23T14:05:34.029Z,11.88
2019-02-23T14:06:34.040Z,11.88
2019-02-23T14:07:34.007Z,11.94
2019-02-23T14:08:33.996Z,11.88
2019-02-23T14:09:33.996Z,11.98
2019-02-23T14:10:33.976Z,12.02
2019-02-23T14:11:33.982Z,12.04
2019-02-23T14:12:33.949Z,12.07
2019-02-23T14:13:33.947Z,12.13
2019-02-23T14:14:33.937Z,12.17
2019-02-23T14:15:33.917Z,12.17
2019-02-23T14:16:33.933Z,12.09
2019-02-23T14:17:33.893Z,11.96
2019-02-23T14:18:33.881Z,11.95
2019-02-23T14:19:33.889Z,11.99
2019-02-23T14:20:33.898Z,11.95
2019-02-23T14:21:34.000Z,12.02
2019-02-23T14:22:33.841Z,11.99
2019-02-23T14:23:33.827Z,11.90
2019-02-23T14:24:33.833Z,11.83
2019-02-23T14:25:33.956Z,11.80
2019-02-23T14:26:33.794Z,11.82
2019-02-23T14:27:33.807Z,11.80
2019-02-23T14:28:33.856Z,11.88
2019-02-23T14:29:33.764Z,11.82
2019-02-23T14:30:33.748Z,11.80
2019-02-23T14:31:33.741Z,11.83
2019-02-23T14:32:33.751Z,11.83
2019-02-23T14:33:33.728Z,11.95
2019-02-23T14:34:33.705Z,11.91
2019-02-23T14:35:33.694Z,11.88
2019-02-23T14:36:33.685Z,11.90
2019-02-23T14:37:33.693Z,11.76
2019-02-23T14:38:33.664Z,11.86
2019-02-23T14:39:33.653Z,11.83
2019-02-23T14:40:33.670Z,11.76
2019-02-23T14:41:33.668Z,11.82
2019-02-23T14:42:33.673Z,11.78
2019-02-23T14:43:33.608Z,11.80
2019-02-23T14:44:33.640Z,11.80
2019-02-23T14:45:33.585Z,11.70
2019-02-23T14:46:33.590Z,11.80
2019-02-23T14:47:33.671Z,11.80
2019-02-23T14:48:33.557Z,11.76
2019-02-23T14:49:33.538Z,11.79
2019-02-23T14:50:33.531Z,11.73
2019-02-23T14:51:33.580Z,11.76
2019-02-23T14:52:33.525Z,11.70
2019-02-23T14:53:33.497Z,11.70
2019-02-23T14:54:33.487Z,11.72
2019-02-23T14:55:33.533Z,11.70
2019-02-23T14:56:33.491Z,11.70
2019-02-23T14:57:33.478Z,11.70
2019-02-23T14:58:33.475Z,11.70
2019-02-23T14:59:33.426Z,11.67
2019-02-23T15:00:33.412Z,11.61
2019-02-23T15:01:33.404Z,11.65
2019-02-23T15:02:33.416Z,11.57
2019-02-23T15:03:33.392Z,11.55
2019-02-23T15:04:33.368Z,11.61
2019-02-23T15:05:33.358Z,11.58
2019-02-23T15:06:33.347Z,11.54
2019-02-23T15:07:33.365Z,11.61
2019-02-23T15:08:33.323Z,11.57
2019-02-23T15:09:33.311Z,11.55
2019-02-23T15:10:33.309Z,11.54
2019-02-23T15:11:33.292Z,11.54
2019-02-23T15:12:33.302Z,11.49
2019-02-23T15:13:33.277Z,11.46
2019-02-23T15:14:33.258Z,11.52
2019-02-23T15:15:33.267Z,11.51
2019-02-23T15:16:33.236Z,11.47
2019-02-23T15:17:33.242Z,11.52
2019-02-23T15:18:33.221Z,11.43
2019-02-23T15:19:33.215Z,11.46
2019-02-23T15:20:33.193Z,11.46
2019-02-23T15:21:33.183Z,11.51
2019-02-23T15:22:33.187Z,11.49
2019-02-23T15:23:33.160Z,11.54
2019-02-23T15:24:33.205Z,11.46
2019-02-23T15:25:33.130Z,11.47
2019-02-23T15:26:33.130Z,11.49
2019-02-23T15:27:33.168Z,11.52
2019-02-23T15:28:37.702Z,11.47
2019-02-23T15:29:34.275Z,11.49
2019-02-23T15:30:33.088Z,11.49
2019-02-23T15:31:33.077Z,11.43
2019-02-23T15:32:33.080Z,11.42
2019-02-23T15:33:33.044Z,11.28
2019-02-23T15:34:33.037Z,11.36
2019-02-23T15:35:33.022Z,11.42
2019-02-23T15:36:33.007Z,11.39
2019-02-23T15:37:33.022Z,11.39
2019-02-23T15:38:32.993Z,11.40
2019-02-23T15:39:33.003Z,11.28
2019-02-23T15:40:32.966Z,11.29
2019-02-23T15:41:32.960Z,11.25
2019-02-23T15:42:32.972Z,11.24
2019-02-23T15:43:32.978Z,11.09
2019-02-23T15:44:32.941Z,11.22
2019-02-23T15:45:32.946Z,11.18
2019-02-23T15:46:32.900Z,11.15
2019-02-23T15:47:32.953Z,11.09
2019-02-23T15:48:32.939Z,11.14
2019-02-23T15:49:32.866Z,11.10
2019-02-23T15:50:32.859Z,11.09
2019-02-23T15:51:32.863Z,11.02
2019-02-23T15:52:32.869Z,11.07
2019-02-23T15:53:32.837Z,11.06
2019-02-23T15:54:32.805Z,11.03
2019-02-23T15:55:32.792Z,10.99
2019-02-23T15:56:32.783Z,10.97
2019-02-23T15:57:32.818Z,11.00
2019-02-23T15:58:32.758Z,10.97
2019-02-23T15:59:32.747Z,10.96
2019-02-23T16:00:35.010Z,10.82
2019-02-23T16:01:32.729Z,10.89
2019-02-23T16:02:32.716Z,10.86
2019-02-23T16:03:32.729Z,10.86
2019-02-23T16:04:32.695Z,10.84
2019-02-23T16:05:32.679Z,10.86
2019-02-23T16:06:32.679Z,10.76
2019-02-23T16:07:32.656Z,10.73
2019-02-23T16:08:32.688Z,10.81
2019-02-23T16:09:32.636Z,10.78
2019-02-23T16:10:32.632Z,10.76
2019-02-23T16:11:32.616Z,10.76
2019-02-23T16:12:32.603Z,10.70
2019-02-23T16:13:32.613Z,10.73
2019-02-23T16:14:32.590Z,10.76
2019-02-23T16:15:32.570Z,10.64
2019-02-23T16:16:32.559Z,10.64
2019-02-23T16:17:32.546Z,10.68
2019-02-23T16:18:32.555Z,10.71
2019-02-23T16:19:32.542Z,10.66
2019-02-23T16:20:32.519Z,10.63
2019-02-23T16:21:32.511Z,10.68
2019-02-23T16:22:32.496Z,10.67
2019-02-23T16:23:35.571Z,10.73
2019-02-23T16:24:32.469Z,10.68
2019-02-23T16:25:38.357Z,10.70
2019-02-23T16:26:33.470Z,10.66
2019-02-23T16:27:32.441Z,10.68
2019-02-23T16:28:32.480Z,10.60
2019-02-23T16:29:32.433Z,10.59
2019-02-23T16:30:32.408Z,10.59
2019-02-23T16:31:32.394Z,10.53
2019-02-23T16:32:32.386Z,10.60
2019-02-23T16:33:32.399Z,10.56
2019-02-23T16:34:32.372Z,10.48
2019-02-23T16:35:32.353Z,10.51
2019-02-23T16:36:32.343Z,10.47
2019-02-23T16:37:32.331Z,10.47
2019-02-23T16:38:32.363Z,10.47
2019-02-23T16:39:32.322Z,10.42
2019-02-23T16:40:32.296Z,10.34
2019-02-23T16:41:32.282Z,10.36
2019-02-23T16:42:32.286Z,10.33
2019-02-23T16:43:32.291Z,10.32
2019-02-23T16:44:32.259Z,10.29
2019-02-23T16:45:32.241Z,10.23
2019-02-23T16:46:32.356Z,10.23
2019-02-23T16:47:32.216Z,10.26
2019-02-23T16:48:32.243Z,10.14
2019-02-23T16:49:32.195Z,10.20
2019-02-23T16:50:32.192Z,10.09
2019-02-23T16:51:32.180Z,10.14
2019-02-23T16:52:32.167Z,9.99
2019-02-23T16:53:32.185Z,10.01
2019-02-23T16:54:32.146Z,10.09
2019-02-23T16:55:32.134Z,10.07
2019-02-23T16:56:32.129Z,9.99
2019-02-23T16:57:32.124Z,9.99
2019-02-23T16:58:32.096Z,9.96
2019-02-23T16:59:32.112Z,9.96
2019-02-23T17:00:32.092Z,9.96
2019-02-23T17:01:32.071Z,10.01
2019-02-23T17:02:32.053Z,9.94
2019-02-23T17:03:32.107Z,9.94
2019-02-23T17:04:32.060Z,9.91
2019-02-23T17:05:32.038Z,10.04
2019-02-23T17:06:32.965Z,9.90
2019-02-23T17:07:31.998Z,9.97
2019-02-23T17:08:31.987Z,9.89
2019-02-23T17:09:32.009Z,9.81
2019-02-23T17:10:31.967Z,9.94
2019-02-23T17:11:31.955Z,9.89
2019-02-23T17:12:31.962Z,9.87
2019-02-23T17:13:31.936Z,9.86
2019-02-23T17:14:31.948Z,9.79
2019-02-23T17:15:31.917Z,9.83
2019-02-23T17:16:31.905Z,9.84
2019-02-23T17:17:31.894Z,9.78
2019-02-23T17:18:31.893Z,9.84
2019-02-23T17:19:31.889Z,9.75
2019-02-23T17:20:31.863Z,9.76
2019-02-23T17:21:31.846Z,9.79
2019-02-23T17:22:31.874Z,9.74
2019-02-23T17:23:31.831Z,9.76
2019-02-23T17:24:31.832Z,9.69
2019-02-23T17:25:31.809Z,9.72
2019-02-23T17:26:31.793Z,9.68
2019-02-23T17:27:36.157Z,9.72
2019-02-23T17:28:31.784Z,9.71
2019-02-23T17:29:31.781Z,9.68
2019-02-23T17:30:31.755Z,9.61
2019-02-23T17:31:31.750Z,9.72
2019-02-23T17:32:31.737Z,9.56
2019-02-23T17:33:31.719Z,9.58
2019-02-23T17:34:31.725Z,9.54
2019-02-23T17:35:31.693Z,9.53
2019-02-23T17:36:31.685Z,9.56
2019-02-23T17:37:31.679Z,9.51
2019-02-23T17:38:31.733Z,9.50
2019-02-23T17:39:31.679Z,9.50
2019-02-23T17:40:31.639Z,9.39
2019-02-23T17:41:31.634Z,9.46
2019-02-23T17:42:31.628Z,9.46
2019-02-23T17:43:31.609Z,9.38
2019-02-23T17:44:31.625Z,9.48
2019-02-23T17:45:31.585Z,9.40
2019-02-23T17:46:31.574Z,9.39
2019-02-23T17:47:31.582Z,9.46
2019-02-23T17:49:31.567Z,9.36
2019-02-23T17:50:31.557Z,9.29
2019-02-23T17:51:31.518Z,9.33
2019-02-23T17:52:31.522Z,9.33
2019-02-23T17:53:31.497Z,9.31
2019-02-23T17:54:31.509Z,9.29
2019-02-23T17:55:31.495Z,9.32
2019-02-23T17:56:31.475Z,9.32
2019-02-23T17:57:31.453Z,9.18
2019-02-23T17:58:31.444Z,9.24
2019-02-23T17:59:31.451Z,9.15
2019-02-23T18:00:31.435Z,9.23
2019-02-23T18:01:31.411Z,9.11
2019-02-23T18:02:31.406Z,9.23
2019-02-23T18:03:31.388Z,9.10
2019-02-23T18:04:31.398Z,9.05
2019-02-23T18:05:31.367Z,9.15
2019-02-23T18:06:31.373Z,9.15
2019-02-23T18:07:31.348Z,9.11
2019-02-23T18:08:31.334Z,9.08
2019-02-23T18:09:31.351Z,9.10
2019-02-23T18:10:31.314Z,9.05
2019-02-23T18:11:31.301Z,9.05
2019-02-23T18:12:31.310Z,9.01
2019-02-23T18:13:31.282Z,9.08
2019-02-23T18:14:31.291Z,9.02
2019-02-23T18:15:31.260Z,9.02
2019-02-23T18:16:31.250Z,8.99
2019-02-23T18:17:31.235Z,8.99
2019-02-23T18:18:31.230Z,9.04
2019-02-23T18:19:31.263Z,9.01
2019-02-23T18:20:31.203Z,9.01
2019-02-23T18:21:31.192Z,8.95
2019-02-23T18:22:31.190Z,8.94
2019-02-23T18:23:31.171Z,8.86
2019-02-23T18:24:31.191Z,8.94
2019-02-23T18:25:31.175Z,8.87
2019-02-23T18:26:31.139Z,8.84
2019-02-23T18:27:31.128Z,8.84
2019-02-23T18:28:31.123Z,8.92
2019-02-23T18:29:31.112Z,8.86
2019-02-23T18:30:31.128Z,8.87
2019-02-23T18:31:31.085Z,8.81
2019-02-23T18:32:31.074Z,8.73
2019-02-23T18:33:31.062Z,8.71
2019-02-23T18:34:31.934Z,8.74
2019-02-23T18:35:31.068Z,8.79
2019-02-23T18:36:31.051Z,8.73
2019-02-23T18:37:31.025Z,8.76
2019-02-23T18:38:31.011Z,8.65
2019-02-23T18:39:30.997Z,8.61
2019-02-23T18:40:31.006Z,8.56
2019-02-23T18:41:30.979Z,8.56
2019-02-23T18:42:30.987Z,8.62
2019-02-23T18:43:30.957Z,8.62
2019-02-23T18:44:30.945Z,8.56
2019-02-23T18:45:30.953Z,8.48
2019-02-23T18:46:30.923Z,8.50
2019-02-23T18:47:30.917Z,8.52
2019-02-23T18:48:30.912Z,8.41
2019-02-23T18:49:30.897Z,8.48
2019-02-23T18:50:30.899Z,8.52
2019-02-23T18:51:30.869Z,8.40
2019-02-23T18:52:30.859Z,8.40
2019-02-23T18:53:30.846Z,8.41
2019-02-23T18:54:30.835Z,8.40
2019-02-23T18:55:30.869Z,8.37
2019-02-23T18:56:30.814Z,8.36
2019-02-23T18:57:30.805Z,8.33
2019-02-23T18:58:30.796Z,8.37
2019-02-23T18:59:30.783Z,8.33
2019-02-23T19:00:30.792Z,8.33
2019-02-23T19:01:30.776Z,8.25
2019-02-23T19:02:30.753Z,8.38
2019-02-23T19:03:30.741Z,8.28
2019-02-23T19:04:30.730Z,8.25
2019-02-23T19:05:30.742Z,8.19
2019-02-23T19:06:30.707Z,8.26
2019-02-23T19:07:30.713Z,8.22
2019-02-23T19:08:30.686Z,8.22
2019-02-23T19:09:30.680Z,8.23
2019-02-23T19:10:30.685Z,8.25
2019-02-23T19:11:30.658Z,8.20
2019-02-23T19:12:30.647Z,8.20
2019-02-23T19:13:30.645Z,8.20
2019-02-23T19:14:30.630Z,8.26
2019-02-23T19:15:30.631Z,8.26
2019-02-23T19:16:30.627Z,8.19
2019-02-23T19:17:30.613Z,8.23
2019-02-23T19:18:30.583Z,8.15
2019-02-23T19:19:30.613Z,8.19
2019-02-23T19:20:30.588Z,8.16
2019-02-23T19:21:30.554Z,8.07
2019-02-23T19:22:30.544Z,8.05
2019-02-23T19:23:30.525Z,8.10
2019-02-23T19:24:30.516Z,8.07
2019-02-23T19:25:30.585Z,8.05
2019-02-23T19:26:38.049Z,8.05
2019-02-23T19:27:31.484Z,7.97
2019-02-23T19:28:30.492Z,8.01
2019-02-23T19:29:30.492Z,8.02
2019-02-23T19:30:30.493Z,7.93
2019-02-23T19:31:30.485Z,7.87
2019-02-23T19:32:30.432Z,7.95
2019-02-23T19:33:30.455Z,7.86
2019-02-23T19:34:30.411Z,7.87
2019-02-23T19:35:30.450Z,7.92
2019-02-23T19:36:30.422Z,7.85
2019-02-23T19:37:30.454Z,7.89
2019-02-23T19:38:30.377Z,7.77
2019-02-23T19:39:30.366Z,7.80
2019-02-23T19:40:30.388Z,7.83
2019-02-23T19:41:30.337Z,7.79
2019-02-23T19:42:30.338Z,7.83
2019-02-23T19:43:30.365Z,7.71
2019-02-23T19:44:30.333Z,7.77
2019-02-23T19:45:30.323Z,7.71
2019-02-23T19:46:30.290Z,7.72
2019-02-23T19:47:30.287Z,7.72
2019-02-23T19:48:30.288Z,7.68
2019-02-23T19:49:30.290Z,7.69